createdAt,value
2023-01-28T00:00:54.653Z,102550.44
2023-01-28T00:03:21.692Z,102543.63
2023-01-28T00:05:48.531Z,102548.25
2023-01-28T00:08:15.170Z,102555.38
2023-01-28T00:10:45.247Z,102552.91
2023-01-28T00:13:14.862Z,102540.63
2023-01-28T00:15:42.144Z,102532.41
2023-01-28T00:18:09.101Z,102535.16
2023-01-28T00:20:35.742Z,102528.00
2023-01-28T00:23:02.794Z,102526.59
2023-01-28T00:25:29.593Z,102524.13
2023-01-28T00:27:56.226Z,102529.03
2023-01-28T00:30:23.486Z,102520.25
2023-01-28T00:32:50.270Z,102525.72
2023-01-28T00:35:17.173Z,102526.22
2023-01-28T00:37:46.480Z,102537.19
2023-01-28T00:40:13.348Z,102543.16
2023-01-28T00:42:39.988Z,102546.44
2023-01-28T00:45:07.089Z,102545.38
2023-01-28T00:47:33.707Z,102531.19
2023-01-28T00:50:00.388Z,102536.69
2023-01-28T00:52:27.740Z,102532.28
2023-01-28T00:54:54.552Z,102519.66
2023-01-28T00:57:21.129Z,102513.63
2023-01-28T00:59:47.745Z,102508.41
2023-01-28T01:02:14.442Z,102500.44
2023-01-28T01:04:41.205Z,102496.06
2023-01-28T01:07:08.086Z,102501.53
2023-01-28T01:09:34.815Z,102505.06
2023-01-28T01:12:01.756Z,102503.16
2023-01-28T01:14:28.485Z,102493.38
2023-01-28T01:16:55.071Z,102493.69
2023-01-28T01:19:21.734Z,102495.69
2023-01-28T01:21:50.777Z,102491.34
2023-01-28T01:24:18.115Z,102485.63
2023-01-28T01:26:44.831Z,102481.56
2023-01-28T01:29:11.657Z,102477.72
2023-01-28T01:31:38.430Z,102484.59
2023-01-28T01:34:05.214Z,102472.31
2023-01-28T01:36:31.882Z,102466.84
2023-01-28T01:38:58.591Z,102472.06
2023-01-28T01:41:29.347Z,102474.81
2023-01-28T01:43:59.189Z,102474.53
2023-01-28T01:46:37.924Z,102477.84
2023-01-28T01:49:23.356Z,102477.91
2023-01-28T01:51:55.448Z,102481.81
2023-01-28T01:54:26.641Z,102476.88
2023-01-28T01:56:53.611Z,102471.97
2023-01-28T01:59:28.679Z,102479.94
2023-01-28T02:01:55.661Z,102476.94
2023-01-28T02:04:35.684Z,102472.06
2023-01-28T02:07:03.202Z,102481.06
2023-01-28T02:09:32.935Z,102486.56
2023-01-28T02:12:08.584Z,102493.38
2023-01-28T02:14:42.221Z,102498.28
2023-01-28T02:17:08.980Z,102503.50
2023-01-28T02:19:53.793Z,102497.78
2023-01-28T02:22:47.852Z,102500.84
2023-01-28T02:25:51.920Z,102501.13
2023-01-28T02:28:33.740Z,102511.59
2023-01-28T02:31:39.164Z,102511.06
2023-01-28T02:34:33.694Z,102521.53
2023-01-28T02:37:07.612Z,102522.34
2023-01-28T02:39:40.664Z,102534.13
2023-01-28T02:42:17.872Z,102534.13
2023-01-28T02:44:44.535Z,102528.63
2023-01-28T02:47:31.121Z,102517.69
2023-01-28T02:50:01.671Z,102512.19
2023-01-28T02:52:56.013Z,102495.78
2023-01-28T02:55:39.609Z,102489.72
2023-01-28T02:58:27.965Z,102504.25
2023-01-28T03:01:38.261Z,102487.00
2023-01-28T03:04:35.480Z,102480.94
2023-01-28T03:07:07.105Z,102488.09
2023-01-28T03:09:34.731Z,102484.53
2023-01-28T03:12:26.067Z,102474.41
2023-01-28T03:15:17.216Z,102472.47
2023-01-28T03:18:04.259Z,102458.19
2023-01-28T03:21:24.495Z,102466.09
2023-01-28T03:24:14.492Z,102460.88
2023-01-28T03:27:29.444Z,102458.41
2023-01-28T03:30:19.145Z,102461.16
2023-01-28T03:33:04.610Z,102475.09
2023-01-28T03:35:53.135Z,102479.75
2023-01-28T03:38:23.823Z,102497.00
2023-01-28T03:40:57.336Z,102497.84
2023-01-28T03:43:24.598Z,102501.13
2023-01-28T03:45:51.620Z,102484.72
2023-01-28T03:48:26.080Z,102476.25
2023-01-28T03:50:53.389Z,102466.09
2023-01-28T03:53:20.305Z,102471.56
2023-01-28T03:55:49.619Z,102479.78
2023-01-28T03:58:17.442Z,102475.41
2023-01-28T04:00:44.106Z,102480.91
2023-01-28T04:03:17.293Z,102478.41
2023-01-28T04:06:02.163Z,102483.88
2023-01-28T04:08:29.140Z,102478.41
2023-01-28T04:10:56.214Z,102485.53
2023-01-28T04:13:23.095Z,102481.47
2023-01-28T04:15:49.962Z,102481.22
2023-01-28T04:18:16.700Z,102476.31
2023-01-28T04:20:43.336Z,102470.00
2023-01-28T04:23:09.989Z,102473.56
2023-01-28T04:25:36.767Z,102457.97
2023-01-28T04:28:03.478Z,102451.38
2023-01-28T04:30:30.131Z,102465.06
2023-01-28T04:32:56.764Z,102471.38
2023-01-28T04:35:23.367Z,102466.47
2023-01-28T04:37:50.000Z,102464.06
2023-01-28T04:40:16.894Z,102469.84
2023-01-28T04:42:43.619Z,102471.25
2023-01-28T04:45:10.679Z,102468.25
2023-01-28T04:47:37.309Z,102474.28
2023-01-28T04:50:04.205Z,102478.94
2023-01-28T04:52:30.854Z,102486.06
2023-01-28T04:54:57.528Z,102478.41
2023-01-28T04:57:24.182Z,102483.66
2023-01-28T04:59:50.824Z,102481.75
2023-01-28T05:02:17.576Z,102488.84
2023-01-28T05:04:45.988Z,102489.69
2023-01-28T05:07:13.703Z,102474.09
2023-01-28T05:09:40.397Z,102490.53
2023-01-28T05:12:07.065Z,102497.63
2023-01-28T05:14:33.737Z,102500.13
2023-01-28T05:17:00.465Z,102492.47
2023-01-28T05:19:27.163Z,102511.41
2023-01-28T05:21:53.779Z,102507.56
2023-01-28T05:24:21.640Z,102504.59
2023-01-28T05:26:48.449Z,102505.41
2023-01-28T05:29:15.072Z,102504.31
2023-01-28T05:31:41.661Z,102514.22
2023-01-28T05:34:08.632Z,102508.72
2023-01-28T05:36:35.212Z,102513.94
2023-01-28T05:39:01.829Z,102507.63
2023-01-28T05:41:28.489Z,102510.13
2023-01-28T05:43:55.120Z,102516.41
2023-01-28T05:46:21.790Z,102519.16
2023-01-28T05:48:48.427Z,102512.88
2023-01-28T05:51:15.079Z,102516.69
2023-01-28T05:53:41.909Z,102508.72
2023-01-28T05:56:08.866Z,102493.63
2023-01-28T05:58:35.552Z,102494.97
2023-01-28T06:01:02.517Z,102488.91
2023-01-28T06:03:29.191Z,102487.50
2023-01-28T06:05:55.866Z,102485.03
2023-01-28T06:08:22.528Z,102483.38
2023-01-28T06:10:49.138Z,102481.75
2023-01-28T06:13:15.758Z,102498.44
2023-01-28T06:15:42.392Z,102497.59
2023-01-28T06:18:09.058Z,102497.03
2023-01-28T06:20:35.743Z,102489.06
2023-01-28T06:23:02.537Z,102486.59
2023-01-28T06:25:29.195Z,102480.81
2023-01-28T06:27:55.960Z,102486.53
2023-01-28T06:30:22.542Z,102483.22
2023-01-28T06:32:54.864Z,102483.47
2023-01-28T06:35:21.893Z,102480.44
2023-01-28T06:37:48.535Z,102465.06
2023-01-28T06:40:15.502Z,102479.03
2023-01-28T06:42:42.346Z,102479.28
2023-01-28T06:45:09.295Z,102474.91
2023-01-28T06:47:35.891Z,102471.56
2023-01-28T06:50:02.505Z,102480.91
2023-01-28T06:52:29.232Z,102482.28
2023-01-28T06:54:55.911Z,102483.69
2023-01-28T06:57:22.702Z,102476.03
2023-01-28T06:59:49.372Z,102477.19
2023-01-28T07:02:16.000Z,102470.09
2023-01-28T07:04:42.631Z,102473.97
2023-01-28T07:07:09.303Z,102471.81
2023-01-28T07:09:35.947Z,102472.38
2023-01-28T07:12:05.333Z,102466.66
2023-01-28T07:14:32.389Z,102478.41
2023-01-28T07:16:59.114Z,102471.59
2023-01-28T07:19:25.782Z,102472.19
2023-01-28T07:21:52.360Z,102470.00
2023-01-28T07:24:19.063Z,102467.56
2023-01-28T07:26:47.876Z,102468.97
2023-01-28T07:29:14.493Z,102479.66
2023-01-28T07:31:41.212Z,102489.53
2023-01-28T07:34:09.545Z,102485.69
2023-01-28T07:36:36.171Z,102479.13
2023-01-28T07:39:03.030Z,102479.13
2023-01-28T07:41:29.715Z,102472.56
2023-01-28T07:43:56.447Z,102477.22
2023-01-28T07:46:23.019Z,102469.81
2023-01-28T07:48:49.761Z,102466.50
2023-01-28T07:51:16.410Z,102467.03
2023-01-28T07:53:43.169Z,102467.31
2023-01-28T07:56:09.849Z,102477.69
2023-01-28T07:58:36.521Z,102481.28
2023-01-28T08:01:03.348Z,102485.66
2023-01-28T08:03:30.259Z,102470.88
2023-01-28T08:05:58.539Z,102488.44
2023-01-28T08:08:27.423Z,102495.59
2023-01-28T08:10:54.412Z,102496.72
2023-01-28T08:13:21.387Z,102504.97
2023-01-28T08:15:48.270Z,102503.38
2023-01-28T08:18:16.435Z,102502.88
2023-01-28T08:20:44.981Z,102505.91
2023-01-28T08:23:16.853Z,102509.22
2023-01-28T08:25:43.591Z,102506.22
2023-01-28T08:28:11.147Z,102511.19
2023-01-28T08:30:39.196Z,102510.66
2023-01-28T08:33:08.282Z,102514.78
2023-01-28T08:35:35.855Z,102516.75
2023-01-28T08:38:04.244Z,102520.06
2023-01-28T08:40:31.149Z,102514.88
2023-01-28T08:42:58.308Z,102523.66
2023-01-28T08:45:28.051Z,102513.28
2023-01-28T08:47:57.374Z,102513.00
2023-01-28T08:50:26.427Z,102512.16
2023-01-28T08:52:57.698Z,102507.53
2023-01-28T08:55:25.415Z,102511.34
2023-01-28T08:57:52.391Z,102510.78
2023-01-28T09:00:20.126Z,102509.13
2023-01-28T09:02:46.784Z,102514.59
2023-01-28T09:05:13.784Z,102514.59
2023-01-28T09:07:40.441Z,102515.75
2023-01-28T09:10:07.540Z,102510.81
2023-01-28T09:12:34.223Z,102519.69
2023-01-28T09:15:00.848Z,102508.75
2023-01-28T09:17:27.963Z,102523.59
2023-01-28T09:19:54.549Z,102517.91
2023-01-28T09:22:21.226Z,102517.94
2023-01-28T09:24:47.879Z,102523.44
2023-01-28T09:27:14.682Z,102517.44
2023-01-28T09:29:41.331Z,102516.09
2023-01-28T09:32:07.981Z,102516.09
2023-01-28T09:34:34.821Z,102520.47
2023-01-28T09:37:01.824Z,102513.88
2023-01-28T09:39:31.478Z,102529.56
2023-01-28T09:42:23.613Z,102518.59
2023-01-28T09:45:16.301Z,102534.03
2023-01-28T09:47:54.025Z,102530.47
2023-01-28T09:50:26.123Z,102537.38
2023-01-28T09:52:57.536Z,102534.34
2023-01-28T09:55:38.830Z,102539.31
2023-01-28T09:58:15.088Z,102546.19
2023-01-28T10:00:53.657Z,102539.59
2023-01-28T10:03:30.419Z,102540.19
2023-01-28T10:06:21.578Z,102545.13
2023-01-28T10:09:06.882Z,102552.56
2023-01-28T10:11:33.520Z,102558.09
2023-01-28T10:14:00.098Z,102562.22
2023-01-28T10:16:35.077Z,102561.94
2023-01-28T10:19:08.248Z,102559.78
2023-01-28T10:21:41.901Z,102563.91
2023-01-28T10:24:22.056Z,102570.78
2023-01-28T10:26:49.411Z,102567.50
2023-01-28T10:29:20.445Z,102567.78
2023-01-28T10:32:04.230Z,102561.44
2023-01-28T10:34:30.973Z,102564.78
2023-01-28T10:36:58.309Z,102576.03
2023-01-28T10:39:26.633Z,102585.66
2023-01-28T10:41:58.319Z,102586.25
2023-01-28T10:44:40.780Z,102580.28
2023-01-28T10:47:14.652Z,102578.38
2023-01-28T10:49:52.383Z,102569.56
2023-01-28T10:52:19.106Z,102565.72
2023-01-28T10:54:45.697Z,102569.31
2023-01-28T10:57:19.155Z,102570.13
2023-01-28T10:59:45.873Z,102572.06
2023-01-28T11:02:24.481Z,102559.69
2023-01-28T11:05:02.863Z,102555.31
2023-01-28T11:07:29.583Z,102552.59
2023-01-28T11:09:56.191Z,102550.66
2023-01-28T11:12:29.188Z,102536.66
2023-01-28T11:15:00.124Z,102533.91
2023-01-28T11:17:31.186Z,102524.28
2023-01-28T11:20:01.769Z,102519.63
2023-01-28T11:22:39.309Z,102516.31
2023-01-28T11:25:24.956Z,102522.09
2023-01-28T11:27:53.888Z,102512.19
2023-01-28T11:30:25.166Z,102514.38
2023-01-28T11:32:57.353Z,102507.78
2023-01-28T11:35:31.161Z,102514.94
2023-01-28T11:37:59.127Z,102512.75
2023-01-28T11:40:26.202Z,102522.63
2023-01-28T11:42:56.965Z,102522.09
2023-01-28T11:45:56.052Z,102522.91
2023-01-28T11:48:55.054Z,102528.69
2023-01-28T11:51:35.977Z,102532.00
2023-01-28T11:54:05.591Z,102523.19
2023-01-28T11:56:51.305Z,102524.81
2023-01-28T11:59:29.979Z,102525.66
2023-01-28T12:02:21.463Z,102518.78
2023-01-28T12:05:06.528Z,102510.81
2023-01-28T12:07:48.352Z,102510.25
2023-01-28T12:10:17.146Z,102514.38
2023-01-28T12:13:10.028Z,102512.19
2023-01-28T12:15:37.491Z,102500.63
2023-01-28T12:18:04.126Z,102508.63
2023-01-28T12:20:52.141Z,102505.88
2023-01-28T12:23:42.838Z,102502.84
2023-01-28T12:26:31.319Z,102489.91
2023-01-28T12:29:04.296Z,102489.59
2023-01-28T12:31:48.035Z,102484.94
2023-01-28T12:34:29.894Z,102472.25
2023-01-28T12:37:22.833Z,102470.34
2023-01-28T12:40:15.934Z,102468.16
2023-01-28T12:42:50.343Z,102463.75
2023-01-28T12:45:55.847Z,102462.38
2023-01-28T12:48:30.677Z,102460.47
2023-01-28T12:51:08.359Z,102459.63
2023-01-28T12:53:52.630Z,102457.94
2023-01-28T12:56:34.057Z,102448.59
2023-01-28T12:59:10.381Z,102443.38
2023-01-28T13:01:47.469Z,102445.00
2023-01-28T13:04:25.552Z,102445.53
2023-01-28T13:07:13.705Z,102437.84
2023-01-28T13:09:49.603Z,102440.31
2023-01-28T13:12:17.272Z,102443.91
2023-01-28T13:14:45.031Z,102441.16
2023-01-28T13:17:32.107Z,102433.16
2023-01-28T13:20:01.276Z,102439.25
2023-01-28T13:22:36.533Z,102438.41
2023-01-28T13:25:23.552Z,102433.72
2023-01-28T13:27:58.965Z,102438.41
2023-01-28T13:30:29.109Z,102434.56
2023-01-28T13:32:58.876Z,102432.91
2023-01-28T13:35:32.413Z,102445.03
2023-01-28T13:38:00.765Z,102435.41
2023-01-28T13:40:28.550Z,102426.59
2023-01-28T13:43:07.272Z,102428.81
2023-01-28T13:45:39.496Z,102425.50
2023-01-28T13:48:24.012Z,102421.38
2023-01-28T13:50:57.781Z,102415.63
2023-01-28T13:53:39.797Z,102416.41
2023-01-28T13:56:18.038Z,102417.78
2023-01-28T13:59:15.931Z,102403.78
2023-01-28T14:01:57.573Z,102395.53
2023-01-28T14:04:56.858Z,102388.91
2023-01-28T14:07:34.709Z,102383.41
2023-01-28T14:10:11.989Z,102373.75
2023-01-28T14:13:07.595Z,102387.78
2023-01-28T14:16:04.632Z,102383.94
2023-01-28T14:18:38.731Z,102380.66
2023-01-28T14:21:13.029Z,102379.53
2023-01-28T14:23:49.026Z,102377.31
2023-01-28T14:26:33.973Z,102376.22
2023-01-28T14:29:13.336Z,102381.72
2023-01-28T14:31:40.562Z,102383.13
2023-01-28T14:34:12.187Z,102384.50
2023-01-28T14:36:41.480Z,102381.22
2023-01-28T14:39:26.428Z,102400.47
2023-01-28T14:41:56.686Z,102390.56
2023-01-28T14:44:29.388Z,102390.84
2023-01-28T14:47:26.209Z,102394.16
2023-01-28T14:49:52.747Z,102406.53
2023-01-28T14:52:34.445Z,102400.50
2023-01-28T14:55:09.789Z,102406.00
2023-01-28T14:57:55.100Z,102401.28
2023-01-28T15:00:33.919Z,102406.00
2023-01-28T15:03:01.841Z,102403.25
2023-01-28T15:05:32.031Z,102408.75
2023-01-28T15:07:59.694Z,102408.75
2023-01-28T15:10:30.361Z,102417.00
2023-01-28T15:13:10.843Z,102419.19
2023-01-28T15:15:40.272Z,102431.31
2023-01-28T15:18:18.965Z,102422.78
2023-01-28T15:20:47.827Z,102421.41
2023-01-28T15:26:07.268Z,102419.75
2023-01-28T15:28:37.587Z,102423.03
2023-01-28T15:31:04.452Z,102415.38
2023-01-28T15:33:31.167Z,102418.66
2023-01-28T15:35:58.981Z,102415.91
2023-01-28T15:38:28.727Z,102417.00
2023-01-28T15:41:00.528Z,102409.56
2023-01-28T15:43:31.098Z,102416.16
2023-01-28T15:45:59.589Z,102404.38
2023-01-28T15:48:32.092Z,102413.72
2023-01-28T15:51:06.427Z,102405.16
2023-01-28T15:53:45.456Z,102412.34
2023-01-28T15:56:15.932Z,102408.50
2023-01-28T15:58:43.174Z,102403.00
2023-01-28T16:01:09.926Z,102400.78
2023-01-28T16:03:40.042Z,102400.25
2023-01-28T16:06:11.752Z,102404.63
2023-01-28T16:08:54.388Z,102407.69
2023-01-28T16:11:32.583Z,102406.00
2023-01-28T16:14:00.732Z,102413.72
2023-01-28T16:16:34.501Z,102409.31
2023-01-28T16:19:06.739Z,102410.69
2023-01-28T16:21:38.075Z,102404.34
2023-01-28T16:24:07.879Z,102404.34
2023-01-28T16:26:36.150Z,102404.34
2023-01-28T16:29:17.050Z,102390.59
2023-01-28T16:31:46.190Z,102393.34
2023-01-28T16:34:12.858Z,102395.84
2023-01-28T16:36:39.792Z,102395.84
2023-01-28T16:39:06.488Z,102395.00
2023-01-28T16:41:38.199Z,102387.31
2023-01-28T16:44:05.994Z,102387.06
2023-01-28T16:46:36.460Z,102378.81
2023-01-28T16:49:05.534Z,102380.44
2023-01-28T16:51:32.518Z,102370.56
2023-01-28T16:53:59.293Z,102386.22
2023-01-28T16:56:45.947Z,102382.09
2023-01-28T16:59:15.014Z,102385.09
2023-01-28T17:01:51.473Z,102389.53
2023-01-28T17:04:18.776Z,102393.94
2023-01-28T17:06:45.836Z,102402.44
2023-01-28T17:09:24.205Z,102405.47
2023-01-28T17:11:51.015Z,102408.22
2023-01-28T17:14:17.664Z,102418.09
2023-01-28T17:16:44.347Z,102408.47
2023-01-28T17:19:11.004Z,102413.16
2023-01-28T17:21:37.625Z,102418.94
2023-01-28T17:24:05.085Z,102416.47
2023-01-28T17:26:31.916Z,102417.56
2023-01-28T17:28:58.547Z,102420.31
2023-01-28T17:31:26.570Z,102434.06
2023-01-28T17:34:08.151Z,102423.34
2023-01-28T17:36:55.137Z,102426.91
2023-01-28T17:40:10.425Z,102423.91
2023-01-28T17:46:29.632Z,102423.59
2023-01-28T17:49:03.069Z,102409.84
2023-01-28T17:51:29.964Z,102405.47
2023-01-28T17:57:47.733Z,102415.91
2023-01-28T18:00:17.844Z,102419.22
2023-01-28T18:02:48.919Z,102415.91
2023-01-28T18:09:34.008Z,102418.13
2023-01-28T18:12:00.699Z,102417.28
2023-01-28T18:15:12.914Z,102412.63
2023-01-28T18:17:39.667Z,102415.38
2023-01-28T18:20:07.697Z,102405.44
2023-01-28T18:22:45.105Z,102413.69
2023-01-28T18:30:03.694Z,102403.28
2023-01-28T18:32:40.809Z,102402.72
2023-01-28T18:35:07.725Z,102404.38
2023-01-28T18:37:34.308Z,102400.78
2023-01-28T18:40:00.972Z,102407.94
2023-01-28T18:42:27.677Z,102418.94
2023-01-28T18:44:54.344Z,102428.81
2023-01-28T18:47:21.743Z,102427.19
2023-01-28T18:49:48.362Z,102419.19
2023-01-28T18:52:15.015Z,102420.03
2023-01-28T18:54:41.762Z,102406.81
2023-01-28T18:57:09.183Z,102417.28
2023-01-28T18:59:35.857Z,102424.97
2023-01-28T19:02:02.689Z,102415.38
2023-01-28T19:04:29.412Z,102404.38
2023-01-28T19:06:57.519Z,102412.88
2023-01-28T19:09:24.287Z,102413.44
2023-01-28T19:11:51.303Z,102405.44
2023-01-28T19:14:18.270Z,102407.66
2023-01-28T19:16:46.629Z,102407.66
2023-01-28T19:19:13.834Z,102408.75
2023-01-28T19:21:40.557Z,102396.13
2023-01-28T19:24:16.637Z,102395.00
2023-01-28T19:26:44.810Z,102381.25
2023-01-28T19:30:09.842Z,102389.25
2023-01-28T19:32:45.619Z,102378.78
2023-01-28T19:35:12.328Z,102381.53
2023-01-28T19:37:38.943Z,102379.63
2023-01-28T19:40:06.606Z,102385.94
2023-01-28T19:42:34.774Z,102374.38
2023-01-28T19:45:03.859Z,102380.47
2023-01-28T19:47:54.157Z,102387.59
2023-01-28T19:50:20.803Z,102385.13
2023-01-28T19:52:47.418Z,102391.44
2023-01-28T19:55:14.452Z,102375.75
2023-01-28T19:57:41.395Z,102363.13
2023-01-28T20:00:08.709Z,102372.22
2023-01-28T20:02:35.436Z,102370.25
2023-01-28T20:05:42.537Z,102361.47
2023-01-28T20:08:10.531Z,102362.56
2023-01-28T20:10:37.152Z,102367.50
2023-01-28T20:13:06.257Z,102368.63
2023-01-28T20:15:32.942Z,102369.69
2023-01-28T20:17:59.649Z,102365.56
2023-01-28T20:20:26.367Z,102357.59
2023-01-28T20:23:25.569Z,102357.56
2023-01-28T20:25:54.770Z,102346.03
2023-01-28T20:28:29.960Z,102351.00
2023-01-28T20:31:24.447Z,102351.00
2023-01-28T20:38:10.028Z,102352.38
2023-01-28T20:40:37.484Z,102355.94
2023-01-28T20:43:04.124Z,102359.78
2023-01-28T20:45:36.700Z,102346.03
2023-01-28T20:48:03.346Z,102342.22
2023-01-28T20:50:29.959Z,102350.44
2023-01-28T20:53:00.483Z,102344.94
2023-01-28T20:55:28.655Z,102344.94
2023-01-28T21:02:54.467Z,102353.75
2023-01-28T21:05:53.366Z,102340.84
2023-01-28T21:08:20.092Z,102340.53
2023-01-28T21:10:47.190Z,102336.72
2023-01-28T21:13:51.403Z,102337.25
2023-01-28T21:16:19.125Z,102345.50
2023-01-28T21:18:45.974Z,102341.91
2023-01-28T21:21:17.058Z,102335.59
2023-01-28T21:23:43.808Z,102331.75
2023-01-28T21:26:10.915Z,102340.53
2023-01-28T21:28:37.620Z,102329.56
2023-01-28T21:31:17.717Z,102330.38
2023-01-28T21:33:48.474Z,102330.66
2023-01-28T21:36:16.839Z,102327.94
2023-01-28T21:38:45.753Z,102325.72
2023-01-28T21:41:12.442Z,102330.09
2023-01-28T21:43:39.096Z,102341.09
2023-01-28T21:46:06.150Z,102333.97
2023-01-28T21:48:33.023Z,102340.28
2023-01-28T21:51:26.036Z,102332.84
2023-01-28T21:53:54.387Z,102331.75
2023-01-28T21:56:21.221Z,102335.59
2023-01-28T21:59:06.389Z,102333.97
2023-01-28T22:01:33.212Z,102338.63
2023-01-28T22:04:00.765Z,102333.38
2023-01-28T22:06:27.852Z,102335.34
2023-01-28T22:08:55.233Z,102333.38
2023-01-28T22:11:22.165Z,102337.81
2023-01-28T22:13:48.990Z,102341.63
2023-01-28T22:16:16.878Z,102339.47
2023-01-28T22:18:43.582Z,102349.34
2023-01-28T22:21:12.843Z,102342.22
2023-01-28T22:23:39.973Z,102335.06
2023-01-28T22:26:08.795Z,102339.72
2023-01-28T22:28:36.536Z,102333.38
2023-01-28T22:31:11.773Z,102345.50
2023-01-28T22:33:38.585Z,102338.34
2023-01-28T22:36:08.074Z,102339.16
2023-01-28T22:38:36.938Z,102331.75
2023-01-28T22:41:07.547Z,102332.00
2023-01-28T22:43:34.551Z,102338.34
2023-01-28T22:46:02.861Z,102342.22
2023-01-28T22:48:29.989Z,102340.53
2023-01-28T22:51:06.153Z,102340.00
2023-01-28T22:53:33.920Z,102330.09
2023-01-28T22:56:01.235Z,102332.84
2023-01-28T22:58:31.505Z,102337.50
2023-01-28T23:00:58.482Z,102328.47
2023-01-28T23:03:25.435Z,102327.63
2023-01-28T23:06:10.365Z,102335.06
2023-01-28T23:08:56.505Z,102337.25
2023-01-28T23:11:43.520Z,102341.09
2023-01-28T23:14:50.021Z,102338.34
2023-01-28T23:17:55.787Z,102331.22
2023-01-28T23:21:01.267Z,102339.47
2023-01-28T23:24:06.803Z,102329.81
2023-01-28T23:26:59.482Z,102324.59
2023-01-28T23:33:38.425Z,102314.16
2023-01-28T23:36:25.734Z,102311.41
2023-01-28T23:39:12.818Z,102310.56
2023-01-28T23:42:08.413Z,102312.78
2023-01-28T23:44:55.420Z,102314.13
2023-01-28T23:48:15.525Z,102313.59
2023-01-28T23:51:02.547Z,102306.16
2023-01-28T23:53:53.208Z,102300.41
2023-01-28T23:56:40.245Z,102307.00
2023-01-28T23:59:27.556Z,102293.81
